createdAt,value
2018-05-25T00:00:16.275Z,13.05
2018-05-25T00:02:48.724Z,13.17
2018-05-25T00:05:21.171Z,13.13
2018-05-25T00:07:53.415Z,12.83
2018-05-25T00:10:25.849Z,12.64
2018-05-25T00:12:58.401Z,12.53
2018-05-25T00:15:30.666Z,12.34
2018-05-25T00:18:03.035Z,12.28
2018-05-25T00:20:35.519Z,12.35
2018-05-25T00:23:08.372Z,12.31
2018-05-25T00:25:40.652Z,12.40
2018-05-25T00:28:13.072Z,12.36
2018-05-25T00:30:45.516Z,12.60
2018-05-25T00:33:17.790Z,12.54
2018-05-25T00:35:50.103Z,12.57
2018-05-25T00:38:22.444Z,12.48
2018-05-25T00:40:54.831Z,12.19
2018-05-25T00:43:27.498Z,12.01
2018-05-25T00:45:59.858Z,12.13
2018-05-25T00:48:32.271Z,12.29
2018-05-25T00:51:04.754Z,12.31
2018-05-25T00:53:37.187Z,12.33
2018-05-25T00:56:09.492Z,12.38
2018-05-25T00:58:42.038Z,12.19
2018-05-25T01:01:14.441Z,12.06
2018-05-25T01:03:46.849Z,12.13
2018-05-25T01:06:19.133Z,12.26
2018-05-25T01:08:51.497Z,12.20
2018-05-25T01:11:23.702Z,12.13
2018-05-25T01:13:56.013Z,12.18
2018-05-25T01:16:28.340Z,12.10
2018-05-25T01:19:00.864Z,11.69
2018-05-25T01:21:33.176Z,11.44
2018-05-25T01:24:05.577Z,11.28
2018-05-25T01:26:38.056Z,10.95
2018-05-25T01:29:10.848Z,11.03
2018-05-25T01:31:43.263Z,10.95
2018-05-25T01:34:15.646Z,11.09
2018-05-25T01:36:47.906Z,11.18
2018-05-25T01:39:20.192Z,11.34
2018-05-25T01:41:52.475Z,11.49
2018-05-25T01:44:24.900Z,11.31
2018-05-25T01:46:57.323Z,11.35
2018-05-25T01:49:29.665Z,11.49
2018-05-25T01:52:01.968Z,11.05
2018-05-25T01:54:34.338Z,10.57
2018-05-25T01:57:06.593Z,10.54
2018-05-25T01:59:39.083Z,10.56
2018-05-25T02:02:11.525Z,10.62
2018-05-25T02:04:49.200Z,10.52
2018-05-25T02:07:21.540Z,10.72
2018-05-25T02:09:53.844Z,10.74
2018-05-25T02:12:26.122Z,10.71
2018-05-25T02:14:58.408Z,10.84
2018-05-25T02:17:30.809Z,10.79
2018-05-25T02:20:03.249Z,10.74
2018-05-25T02:22:35.656Z,10.74
2018-05-25T02:25:08.032Z,10.50
2018-05-25T02:27:40.382Z,10.59
2018-05-25T02:30:13.039Z,10.13
2018-05-25T02:32:45.379Z,10.06
2018-05-25T02:35:17.656Z,9.99
2018-05-25T02:37:50.057Z,10.05
2018-05-25T02:40:22.437Z,10.03
2018-05-25T02:42:54.903Z,10.07
2018-05-25T02:45:27.592Z,10.12
2018-05-25T02:48:00.009Z,10.07
2018-05-25T02:50:32.429Z,10.29
2018-05-25T02:53:04.854Z,10.12
2018-05-25T02:55:37.253Z,10.06
2018-05-25T02:58:09.643Z,10.23
2018-05-25T03:00:42.198Z,10.24
2018-05-25T03:03:14.591Z,10.20
2018-05-25T03:05:46.885Z,10.31
2018-05-25T03:08:19.334Z,10.36
2018-05-25T03:10:51.581Z,10.32
2018-05-25T03:13:24.085Z,10.52
2018-05-25T03:15:56.494Z,10.56
2018-05-25T03:18:28.894Z,10.38
2018-05-25T03:21:01.175Z,10.53
2018-05-25T03:23:33.477Z,10.70
2018-05-25T03:26:05.821Z,10.65
2018-05-25T03:28:38.076Z,10.88
2018-05-25T03:31:10.872Z,11.06
2018-05-25T03:33:43.262Z,11.14
2018-05-25T03:36:15.805Z,11.14
2018-05-25T03:38:48.063Z,11.27
2018-05-25T03:41:20.371Z,11.41
2018-05-25T03:43:52.644Z,11.60
2018-05-25T03:46:25.411Z,11.71
2018-05-25T03:48:57.812Z,11.78
2018-05-25T03:51:30.260Z,11.54
2018-05-25T03:54:02.696Z,11.35
2018-05-25T03:56:35.207Z,11.05
2018-05-25T03:59:19.587Z,11.31
2018-05-25T04:01:58.457Z,11.36
2018-05-25T04:04:30.757Z,11.09
2018-05-25T04:07:03.085Z,11.25
2018-05-25T04:09:35.589Z,10.98
2018-05-25T04:12:08.063Z,10.96
2018-05-25T04:14:40.314Z,11.17
2018-05-25T04:17:12.794Z,11.49
2018-05-25T04:19:45.231Z,11.75
2018-05-25T04:22:17.759Z,11.91
2018-05-25T04:24:50.074Z,12.00
2018-05-25T04:27:22.403Z,12.13
2018-05-25T04:29:54.844Z,12.22
2018-05-25T04:32:27.277Z,12.03
2018-05-25T04:34:59.751Z,12.19
2018-05-25T04:37:32.242Z,12.21
2018-05-25T04:40:04.559Z,11.94
2018-05-25T04:42:36.855Z,11.94
2018-05-25T04:45:09.140Z,12.25
2018-05-25T04:47:41.688Z,12.20
2018-05-25T04:50:14.101Z,12.01
2018-05-25T04:52:46.530Z,12.17
2018-05-25T04:55:19.331Z,12.21
2018-05-25T04:57:51.718Z,12.55
2018-05-25T05:00:24.174Z,12.71
2018-05-25T05:02:56.685Z,12.99
2018-05-25T05:05:29.266Z,13.13
2018-05-25T05:08:01.739Z,13.44
2018-05-25T05:10:34.077Z,13.68
2018-05-25T05:13:06.621Z,13.84
2018-05-25T05:15:39.141Z,14.24
2018-05-25T05:18:11.732Z,14.43
2018-05-25T05:20:44.146Z,14.53
2018-05-25T05:23:16.695Z,14.30
2018-05-25T05:25:49.067Z,14.26
2018-05-25T05:28:21.425Z,13.77
2018-05-25T05:30:53.719Z,13.91
2018-05-25T05:33:26.096Z,14.20
2018-05-25T05:35:58.520Z,13.98
2018-05-25T05:38:30.875Z,13.82
2018-05-25T05:41:03.291Z,13.71
2018-05-25T05:43:35.604Z,14.01
2018-05-25T05:46:08.063Z,14.12
2018-05-25T05:48:40.475Z,14.57
2018-05-25T05:51:12.826Z,15.11
2018-05-25T05:53:45.148Z,14.78
2018-05-25T05:56:17.567Z,14.56
2018-05-25T05:58:49.902Z,14.89
2018-05-25T06:01:22.410Z,15.29
2018-05-25T06:03:54.904Z,15.86
2018-05-25T06:06:27.348Z,16.15
2018-05-25T06:08:59.694Z,16.31
2018-05-25T06:11:31.936Z,16.26
2018-05-25T06:14:04.339Z,16.73
2018-05-25T06:16:36.751Z,17.10
2018-05-25T06:19:09.139Z,17.75
2018-05-25T06:21:41.392Z,17.83
2018-05-25T06:24:13.788Z,17.68
2018-05-25T06:26:46.176Z,17.83
2018-05-25T06:29:18.510Z,17.78
2018-05-25T06:31:50.821Z,17.43
2018-05-25T06:34:23.271Z,17.56
2018-05-25T06:36:55.611Z,17.66
2018-05-25T06:39:27.907Z,17.97
2018-05-25T06:42:00.212Z,17.92
2018-05-25T06:44:32.704Z,18.36
2018-05-25T06:47:05.159Z,18.38
2018-05-25T06:49:37.629Z,18.85
2018-05-25T06:52:10.118Z,19.14
2018-05-25T06:54:42.581Z,19.08
2018-05-25T06:57:15.065Z,19.29
2018-05-25T06:59:47.367Z,19.39
2018-05-25T07:02:19.798Z,19.74
2018-05-25T07:04:52.362Z,19.42
2018-05-25T07:07:24.796Z,19.26
2018-05-25T07:09:57.218Z,19.58
2018-05-25T07:12:29.760Z,19.55
2018-05-25T07:15:02.133Z,19.88
2018-05-25T07:17:34.631Z,20.08
2018-05-25T07:20:07.121Z,20.79
2018-05-25T07:22:39.563Z,20.80
2018-05-25T07:25:12.126Z,21.14
2018-05-25T07:27:44.637Z,20.80
2018-05-25T07:30:17.437Z,20.56
2018-05-25T07:32:49.972Z,20.30
2018-05-25T07:35:22.495Z,20.17
2018-05-25T07:37:54.996Z,20.19
2018-05-25T07:40:27.428Z,20.28
2018-05-25T07:42:59.791Z,20.07
2018-05-25T07:45:32.251Z,20.24
2018-05-25T07:48:04.564Z,20.30
2018-05-25T07:50:37.089Z,20.64
2018-05-25T07:53:09.586Z,21.08
2018-05-25T07:55:42.117Z,21.43
2018-05-25T07:58:14.587Z,21.96
2018-05-25T08:00:49.922Z,22.17
2018-05-25T08:03:22.442Z,21.94
2018-05-25T08:05:54.926Z,22.10
2018-05-25T08:08:27.261Z,21.86
2018-05-25T08:10:59.548Z,22.39
2018-05-25T08:13:31.859Z,22.70
2018-05-25T08:16:04.223Z,22.71
2018-05-25T08:18:36.667Z,23.26
2018-05-25T08:21:09.263Z,23.47
2018-05-25T08:23:41.757Z,23.92
2018-05-25T08:26:14.218Z,23.87
2018-05-25T08:28:46.616Z,23.99
2018-05-25T08:31:19.129Z,24.23
2018-05-25T08:33:51.377Z,24.52
2018-05-25T08:36:23.707Z,24.74
2018-05-25T08:38:56.054Z,24.51
2018-05-25T08:41:28.399Z,24.12
2018-05-25T08:44:00.744Z,23.47
2018-05-25T08:46:33.161Z,23.80
2018-05-25T08:49:05.715Z,24.17
2018-05-25T08:51:38.298Z,25.11
2018-05-25T08:54:10.920Z,25.39
2018-05-25T08:56:43.422Z,25.18
2018-05-25T08:59:15.715Z,24.38
2018-05-25T09:01:48.128Z,24.45
2018-05-25T09:04:20.597Z,24.48
2018-05-25T09:06:53.111Z,24.59
2018-05-25T09:09:25.553Z,25.11
2018-05-25T09:11:57.983Z,25.26
2018-05-25T09:14:30.379Z,25.27
2018-05-25T09:17:02.730Z,25.03
2018-05-25T09:19:34.993Z,25.14
2018-05-25T09:22:07.349Z,25.57
2018-05-25T09:24:39.584Z,25.89
2018-05-25T09:27:11.912Z,25.34
2018-05-25T09:29:44.323Z,24.69
2018-05-25T09:32:16.666Z,24.11
2018-05-25T09:34:49.086Z,24.23
2018-05-25T09:37:21.388Z,25.04
2018-05-25T09:39:53.690Z,25.17
2018-05-25T09:42:25.933Z,25.21
2018-05-25T09:44:58.191Z,25.81
2018-05-25T09:47:30.507Z,25.51
2018-05-25T09:50:02.804Z,25.61
2018-05-25T09:52:35.184Z,25.15
2018-05-25T09:55:07.417Z,24.71
2018-05-25T09:57:51.937Z,24.23
2018-05-25T10:00:25.212Z,24.60
2018-05-25T10:02:57.540Z,24.92
2018-05-25T10:05:29.757Z,25.89
2018-05-25T10:08:02.185Z,25.64
2018-05-25T10:10:34.548Z,25.96
2018-05-25T10:13:06.905Z,25.93
2018-05-25T10:15:39.327Z,25.73
2018-05-25T10:18:11.613Z,26.25
2018-05-25T10:20:44.026Z,26.72
2018-05-25T10:23:16.495Z,27.25
2018-05-25T10:25:48.759Z,27.25
2018-05-25T10:28:21.067Z,28.08
2018-05-25T10:30:53.425Z,27.92
2018-05-25T10:33:25.688Z,26.20
2018-05-25T10:35:58.035Z,26.12
2018-05-25T10:38:30.328Z,25.61
2018-05-25T10:41:02.585Z,25.26
2018-05-25T10:43:35.032Z,25.23
2018-05-25T10:46:10.744Z,25.23
2018-05-25T10:48:43.247Z,25.05
2018-05-25T10:51:15.529Z,25.04
2018-05-25T10:53:47.955Z,25.23
2018-05-25T10:56:20.164Z,25.28
2018-05-25T10:58:52.446Z,24.95
2018-05-25T11:01:24.845Z,25.04
2018-05-25T11:03:57.180Z,24.71
2018-05-25T11:06:29.464Z,24.51
2018-05-25T11:09:02.185Z,23.89
2018-05-25T11:11:34.452Z,23.84
2018-05-25T11:14:06.758Z,23.92
2018-05-25T11:16:39.203Z,24.38
2018-05-25T11:19:11.540Z,25.09
2018-05-25T11:21:43.834Z,26.07
2018-05-25T11:24:16.337Z,26.56
2018-05-25T11:26:48.728Z,26.96
2018-05-25T11:29:21.079Z,26.90
2018-05-25T11:31:53.591Z,26.61
2018-05-25T11:34:25.899Z,26.83
2018-05-25T11:36:58.208Z,27.06
2018-05-25T11:39:30.561Z,27.55
2018-05-25T11:42:03.098Z,28.14
2018-05-25T11:44:35.547Z,28.55
2018-05-25T11:47:07.884Z,28.24
2018-05-25T11:49:40.149Z,27.70
2018-05-25T11:52:12.409Z,26.34
2018-05-25T11:54:44.944Z,25.59
2018-05-25T11:57:17.363Z,24.97
2018-05-25T11:59:49.844Z,24.88
2018-05-25T12:02:22.111Z,24.54
2018-05-25T12:04:54.678Z,24.58
2018-05-25T12:07:26.907Z,24.51
2018-05-25T12:09:59.451Z,24.53
2018-05-25T12:12:31.882Z,24.68
2018-05-25T12:15:04.466Z,24.70
2018-05-25T12:17:36.770Z,24.42
2018-05-25T12:20:09.266Z,24.32
2018-05-25T12:22:41.713Z,25.01
2018-05-25T12:25:14.058Z,25.30
2018-05-25T12:27:46.483Z,25.00
2018-05-25T12:30:18.768Z,25.76
2018-05-25T12:32:50.994Z,26.16
2018-05-25T12:35:23.483Z,26.17
2018-05-25T12:37:55.771Z,25.42
2018-05-25T12:40:28.315Z,25.42
2018-05-25T12:43:00.605Z,24.73
2018-05-25T12:45:38.414Z,24.45
2018-05-25T12:48:10.776Z,24.60
2018-05-25T12:50:43.124Z,23.96
2018-05-25T12:53:15.613Z,23.88
2018-05-25T12:55:48.218Z,23.96
2018-05-25T12:58:20.631Z,23.72
2018-05-25T13:00:52.871Z,23.27
2018-05-25T13:03:25.093Z,22.65
2018-05-25T13:05:57.524Z,22.80
2018-05-25T13:08:29.893Z,22.55
2018-05-25T13:11:02.433Z,22.81
2018-05-25T13:13:35.764Z,23.35
2018-05-25T13:16:08.106Z,23.85
2018-05-25T13:18:40.337Z,24.24
2018-05-25T13:21:12.768Z,24.56
2018-05-25T13:23:45.197Z,24.86
2018-05-25T13:26:18.033Z,24.54
2018-05-25T13:28:50.332Z,24.82
2018-05-25T13:31:22.584Z,24.72
2018-05-25T13:33:54.866Z,24.06
2018-05-25T13:36:27.351Z,23.61
2018-05-25T13:38:59.773Z,23.28
2018-05-25T13:41:32.290Z,23.74
2018-05-25T13:44:04.747Z,23.25
2018-05-25T13:46:37.022Z,22.91
2018-05-25T13:49:09.453Z,22.88
2018-05-25T13:51:41.721Z,22.60
2018-05-25T13:54:14.145Z,22.75
2018-05-25T13:56:46.584Z,22.77
2018-05-25T13:59:19.036Z,22.78
2018-05-25T14:01:51.328Z,23.04
2018-05-25T14:04:24.570Z,23.17
2018-05-25T14:06:57.048Z,23.09
2018-05-25T14:09:29.379Z,23.21
2018-05-25T14:12:02.024Z,22.57
2018-05-25T14:14:34.501Z,22.50
2018-05-25T14:17:07.589Z,22.50
2018-05-25T14:19:39.839Z,22.68
2018-05-25T14:22:13.683Z,22.62
2018-05-25T14:24:48.061Z,22.85
2018-05-25T14:27:20.580Z,22.37
2018-05-25T14:29:53.040Z,22.26
2018-05-25T14:32:25.410Z,22.27
2018-05-25T14:34:57.870Z,22.68
2018-05-25T14:37:30.509Z,22.43
2018-05-25T14:40:02.786Z,22.64
2018-05-25T14:42:35.284Z,22.49
2018-05-25T14:45:07.542Z,22.71
2018-05-25T14:47:39.916Z,22.40
2018-05-25T14:50:12.342Z,22.67
2018-05-25T14:52:44.578Z,22.96
2018-05-25T14:55:16.853Z,23.42
2018-05-25T14:57:49.319Z,23.49
2018-05-25T15:00:21.705Z,23.89
2018-05-25T15:02:54.087Z,23.78
2018-05-25T15:05:26.537Z,23.61
2018-05-25T15:07:58.801Z,23.57
2018-05-25T15:10:31.208Z,23.46
2018-05-25T15:13:03.715Z,23.41
2018-05-25T15:15:36.161Z,22.96
2018-05-25T15:18:08.502Z,23.02
2018-05-25T15:20:40.907Z,22.58
2018-05-25T15:23:13.435Z,22.18
2018-05-25T15:25:45.781Z,22.50
2018-05-25T15:28:18.200Z,22.59
2018-05-25T15:30:50.824Z,22.34
2018-05-25T15:33:23.167Z,22.03
2018-05-25T15:35:55.573Z,21.88
2018-05-25T15:38:28.021Z,21.80
2018-05-25T15:41:00.385Z,21.88
2018-05-25T15:43:32.802Z,21.63
2018-05-25T15:46:05.254Z,21.38
2018-05-25T15:48:37.523Z,21.79
2018-05-25T15:51:10.809Z,22.04
2018-05-25T15:53:43.143Z,21.96
2018-05-25T15:56:15.594Z,22.07
2018-05-25T15:58:48.123Z,22.13
2018-05-25T16:01:20.439Z,22.26
2018-05-25T16:03:52.683Z,22.26
2018-05-25T16:06:25.088Z,22.05
2018-05-25T16:08:57.317Z,22.02
2018-05-25T16:11:29.627Z,21.93
2018-05-25T16:14:02.248Z,21.67
2018-05-25T16:16:34.648Z,21.62
2018-05-25T16:19:06.971Z,21.45
2018-05-25T16:21:39.447Z,21.43
2018-05-25T16:24:11.935Z,21.55
2018-05-25T16:26:44.369Z,21.73
2018-05-25T16:29:16.929Z,21.68
2018-05-25T16:31:49.301Z,21.57
2018-05-25T16:34:21.803Z,21.16
2018-05-25T16:36:54.267Z,21.46
2018-05-25T16:39:26.605Z,21.32
2018-05-25T16:41:58.831Z,21.10
2018-05-25T16:44:32.183Z,21.25
2018-05-25T16:47:04.422Z,21.05
2018-05-25T16:49:36.742Z,20.86
2018-05-25T16:52:09.147Z,20.92
2018-05-25T16:54:41.442Z,20.89
2018-05-25T16:57:13.932Z,20.68
2018-05-25T16:59:46.580Z,20.71
2018-05-25T17:02:19.029Z,20.63
2018-05-25T17:04:51.284Z,20.40
2018-05-25T17:07:23.707Z,20.23
2018-05-25T17:09:55.972Z,20.07
2018-05-25T17:12:28.380Z,20.02
2018-05-25T17:15:01.213Z,20.02
2018-05-25T17:17:33.525Z,19.91
2018-05-25T17:20:05.833Z,19.83
2018-05-25T17:22:38.268Z,19.80
2018-05-25T17:25:10.520Z,19.70
2018-05-25T17:27:42.921Z,19.73
2018-05-25T17:30:16.280Z,19.66
2018-05-25T17:32:48.708Z,19.66
2018-05-25T17:35:20.948Z,19.57
2018-05-25T17:37:53.310Z,19.49
2018-05-25T17:40:25.673Z,19.41
2018-05-25T17:42:58.025Z,19.30
2018-05-25T17:45:30.407Z,19.29
2018-05-25T17:48:02.753Z,19.27
2018-05-25T17:50:35.235Z,19.27
2018-05-25T17:53:07.655Z,19.27
2018-05-25T17:55:39.967Z,19.24
2018-05-25T17:58:12.427Z,19.06
2018-05-25T18:00:44.817Z,18.88
2018-05-25T18:03:17.341Z,18.77
2018-05-25T18:05:49.814Z,18.69
2018-05-25T18:08:22.095Z,18.65
2018-05-25T18:10:54.581Z,18.59
2018-05-25T18:13:26.997Z,18.62
2018-05-25T18:15:59.488Z,18.57
2018-05-25T18:18:31.948Z,18.69
2018-05-25T18:21:04.269Z,18.73
2018-05-25T18:23:36.641Z,18.56
2018-05-25T18:26:08.910Z,18.26
2018-05-25T18:28:41.172Z,18.27
2018-05-25T18:31:13.540Z,18.18
2018-05-25T18:33:45.985Z,17.95
2018-05-25T18:36:18.273Z,18.10
2018-05-25T18:38:50.521Z,18.12
2018-05-25T18:41:22.831Z,18.14
2018-05-25T18:43:55.113Z,18.11
2018-05-25T18:46:27.677Z,18.05
2018-05-25T18:49:00.053Z,17.92
2018-05-25T18:51:32.594Z,17.99
2018-05-25T18:54:17.050Z,18.02
2018-05-25T18:56:49.412Z,18.11
2018-05-25T18:59:22.247Z,18.06
2018-05-25T19:01:54.679Z,17.99
2018-05-25T19:04:27.114Z,17.94
2018-05-25T19:06:59.444Z,17.89
2018-05-25T19:09:31.851Z,17.77
2018-05-25T19:12:04.221Z,17.68
2018-05-25T19:14:37.614Z,17.67
2018-05-25T19:17:10.291Z,17.36
2018-05-25T19:19:42.629Z,17.29
2018-05-25T19:22:15.121Z,17.21
2018-05-25T19:24:48.255Z,17.35
2018-05-25T19:27:20.819Z,17.46
2018-05-25T19:29:53.268Z,17.39
2018-05-25T19:32:25.856Z,17.23
2018-05-25T19:34:58.133Z,17.07
2018-05-25T19:37:30.557Z,17.12
2018-05-25T19:40:02.918Z,17.22
2018-05-25T19:42:35.420Z,17.30
2018-05-25T19:45:07.877Z,17.23
2018-05-25T19:47:40.530Z,17.11
2018-05-25T19:50:13.252Z,17.08
2018-05-25T19:52:45.882Z,16.92
2018-05-25T19:55:18.264Z,16.84
2018-05-25T19:57:50.585Z,16.79
2018-05-25T20:00:22.887Z,16.57
2018-05-25T20:02:55.487Z,16.67
2018-05-25T20:05:28.255Z,16.70
2018-05-25T20:08:00.594Z,16.57
2018-05-25T20:10:32.877Z,16.61
2018-05-25T20:13:05.122Z,16.82
2018-05-25T20:15:37.437Z,16.86
2018-05-25T20:18:09.967Z,16.90
2018-05-25T20:20:42.590Z,16.70
2018-05-25T20:23:15.055Z,16.51
2018-05-25T20:25:47.511Z,16.38
2018-05-25T20:28:19.841Z,16.33
2018-05-25T20:30:52.299Z,16.19
2018-05-25T20:33:25.027Z,16.11
2018-05-25T20:35:57.459Z,16.13
2018-05-25T20:38:29.847Z,16.12
2018-05-25T20:41:02.272Z,16.23
2018-05-25T20:43:34.579Z,16.19
2018-05-25T20:46:06.871Z,16.24
2018-05-25T20:48:39.231Z,16.18
2018-05-25T20:51:11.693Z,16.24
2018-05-25T20:53:43.947Z,16.26
2018-05-25T20:56:16.258Z,16.26
2018-05-25T20:58:48.663Z,16.29
2018-05-25T21:01:21.093Z,16.30
2018-05-25T21:03:53.441Z,16.25
2018-05-25T21:06:25.806Z,16.23
2018-05-25T21:08:58.070Z,16.19
2018-05-25T21:11:30.261Z,16.27
2018-05-25T21:14:02.670Z,16.19
2018-05-25T21:16:34.877Z,16.06
2018-05-25T21:19:08.426Z,16.01
2018-05-25T21:21:40.899Z,15.90
2018-05-25T21:24:13.316Z,15.98
2018-05-25T21:26:45.700Z,15.98
2018-05-25T21:29:18.805Z,15.87
2018-05-25T21:31:51.191Z,15.83
2018-05-25T21:34:24.751Z,15.85
2018-05-25T21:36:56.956Z,15.87
2018-05-25T21:39:29.282Z,15.82
2018-05-25T21:42:01.565Z,15.79
2018-05-25T21:44:33.824Z,15.78
2018-05-25T21:47:06.115Z,15.67
2018-05-25T21:49:38.684Z,15.57
2018-05-25T21:52:11.146Z,15.63
2018-05-25T21:54:43.508Z,15.61
2018-05-25T21:57:15.808Z,15.58
2018-05-25T21:59:48.164Z,15.48
2018-05-25T22:02:20.624Z,15.38
2018-05-25T22:04:53.141Z,15.34
2018-05-25T22:07:25.551Z,15.33
2018-05-25T22:09:57.872Z,14.96
2018-05-25T22:12:30.345Z,14.59
2018-05-25T22:15:02.744Z,14.49
2018-05-25T22:17:35.312Z,14.42
2018-05-25T22:20:08.190Z,14.59
2018-05-25T22:22:40.631Z,14.67
2018-05-25T22:25:13.526Z,14.77
2018-05-25T22:27:46.379Z,14.84
2018-05-25T22:30:18.704Z,14.79
2018-05-25T22:32:51.085Z,14.71
2018-05-25T22:35:23.665Z,14.72
2018-05-25T22:37:56.131Z,14.70
2018-05-25T22:40:28.605Z,14.68
2018-05-25T22:43:13.015Z,14.57
2018-05-25T22:45:57.369Z,14.18
2018-05-25T22:48:41.858Z,14.33
2018-05-25T22:51:26.496Z,14.07
2018-05-25T22:54:04.934Z,14.15
2018-05-25T22:56:37.601Z,14.29
2018-05-25T22:59:09.850Z,14.30
2018-05-25T23:01:42.187Z,14.36
2018-05-25T23:04:14.627Z,14.30
2018-05-25T23:06:47.004Z,14.25
2018-05-25T23:09:19.340Z,14.18
2018-05-25T23:11:51.713Z,13.89
2018-05-25T23:14:24.000Z,13.89
2018-05-25T23:16:56.901Z,13.68
2018-05-25T23:19:29.452Z,13.49
2018-05-25T23:22:02.377Z,13.35
2018-05-25T23:24:34.892Z,13.29
2018-05-25T23:27:12.778Z,13.35
2018-05-25T23:29:45.352Z,13.36
2018-05-25T23:32:17.791Z,13.26
2018-05-25T23:34:50.408Z,13.20
2018-05-25T23:37:29.919Z,13.18
2018-05-25T23:40:02.680Z,13.06
2018-05-25T23:42:35.188Z,13.34
2018-05-25T23:45:07.706Z,13.51
2018-05-25T23:47:40.319Z,13.54
2018-05-25T23:50:12.744Z,13.48
2018-05-25T23:52:45.248Z,13.46
2018-05-25T23:55:17.729Z,13.38
2018-05-25T23:57:50.171Z,13.49
